Time;durP1;ratioP1;P1;durP2;ratioP2;P2;SDS_P1;SDS_P2;PMS_P1;PMS_P2;Temp;Humidity;BMP_temperature;BMP_pressure;BME280_temperature;BME280_humidity;BME280_pressure;Samples;Min_cycle;Max_cycle;Signal;HPM_P1;HPM_P2
2023/04/25 00:00:19;;;;;;;8.13;4.55;;;;;;;;;;7369972;19;20015;-69
2023/04/25 00:02:46;;;;;;;7.53;4.88;;;;;;;;;;7370468;19;20566;-69
2023/04/25 00:05:12;;;;;;;8.85;4.93;;;;;;;;;;7371445;19;20002;-69
2023/04/25 00:07:38;;;;;;;7.72;4.85;;;;;;;;;;7368145;19;20052;-69
2023/04/25 00:10:04;;;;;;;11.15;5.57;;;;;;;;;;7393631;19;20006;-69
2023/04/25 00:12:29;;;;;;;8.55;4.85;;;;;;;;;;7369066;19;20015;-69
2023/04/25 00:14:56;;;;;;;10.73;5.30;;;;;;;;;;7371601;19;20002;-69
2023/04/25 00:17:24;;;;;;;8.65;5.18;;;;;;;;;;7372451;19;20006;-68
2023/04/25 00:19:50;;;;;;;10.07;5.60;;;;;;;;;;7379640;19;20400;-68
2023/04/25 00:22:15;;;;;;;9.43;5.28;;;;;;;;;;7394847;19;20009;-68
2023/04/25 00:24:41;;;;;;;8.88;4.88;;;;;;;;;;7376614;19;20013;-69
2023/04/25 00:27:06;;;;;;;8.57;5.10;;;;;;;;;;7370303;19;20015;-69
2023/04/25 00:29:31;;;;;;;9.38;5.10;;;;;;;;;;7373479;19;20122;-68
2023/04/25 00:31:56;;;;;;;7.90;5.03;;;;;;;;;;7374735;19;20445;-68
2023/04/25 00:34:22;;;;;;;8.52;5.13;;;;;;;;;;7370951;19;20026;-68
2023/04/25 00:36:47;;;;;;;8.23;4.85;;;;;;;;;;7390666;19;20009;-69
2023/04/25 00:39:12;;;;;;;9.25;4.80;;;;;;;;;;7369135;19;20010;-69
2023/04/25 00:41:38;;;;;;;6.80;4.30;;;;;;;;;;7369347;19;20055;-69
2023/04/25 00:44:06;;;;;;;9.00;5.32;;;;;;;;;;7369416;19;20023;-69
2023/04/25 00:46:32;;;;;;;11.88;4.88;;;;;;;;;;7367991;19;20007;-69
2023/04/25 00:48:57;;;;;;;11.73;4.88;;;;;;;;;;7391469;19;20062;-69
2023/04/25 00:51:24;;;;;;;8.57;4.93;;;;;;;;;;7368413;19;20002;-69
2023/04/25 00:53:50;;;;;;;8.35;4.97;;;;;;;;;;7369545;19;20013;-69
2023/04/25 00:56:16;;;;;;;7.47;5.00;;;;;;;;;;7370119;19;20003;-68
2023/04/25 00:58:42;;;;;;;8.90;4.85;;;;;;;;;;7368361;19;20353;-69
2023/04/25 01:01:08;;;;;;;8.93;5.03;;;;;;;;;;7390503;19;20330;-70
2023/04/25 01:03:40;;;;;;;7.88;4.85;;;;;;;;;;7368141;19;20074;-69
2023/04/25 01:06:09;;;;;;;10.15;5.25;;;;;;;;;;7370999;19;20031;-68
2023/04/25 01:08:35;;;;;;;8.57;5.07;;;;;;;;;;7374731;19;20009;-69
2023/04/25 01:11:01;;;;;;;9.88;4.88;;;;;;;;;;7370071;19;20010;-68
2023/04/25 01:13:26;;;;;;;7.95;4.55;;;;;;;;;;7367753;19;20005;-70
2023/04/25 01:15:52;;;;;;;8.48;5.13;;;;;;;;;;7389289;19;19999;-68
2023/04/25 01:18:20;;;;;;;8.32;4.85;;;;;;;;;;7366254;19;20006;-68
2023/04/25 01:20:46;;;;;;;10.05;4.93;;;;;;;;;;7370712;19;20010;-70
2023/04/25 01:23:12;;;;;;;8.27;4.93;;;;;;;;;;7370667;19;20003;-69
2023/04/25 01:25:39;;;;;;;8.10;4.95;;;;;;;;;;7367574;19;20006;-69
2023/04/25 01:28:05;;;;;;;8.35;5.28;;;;;;;;;;7388506;19;20006;-69
2023/04/25 01:30:30;;;;;;;8.25;5.03;;;;;;;;;;7364969;19;20011;-69
2023/04/25 01:32:57;;;;;;;8.82;5.22;;;;;;;;;;7367926;19;20011;-69
2023/04/25 01:35:23;;;;;;;7.95;4.65;;;;;;;;;;7367183;19;20010;-70
2023/04/25 01:37:49;;;;;;;9.07;5.38;;;;;;;;;;7366020;19;20073;-70
2023/04/25 01:40:15;;;;;;;9.32;5.18;;;;;;;;;;7388246;19;20006;-69
2023/04/25 01:42:42;;;;;;;8.20;5.10;;;;;;;;;;7366958;19;20025;-68
2023/04/25 01:45:09;;;;;;;11.25;5.55;;;;;;;;;;7367007;19;20474;-68
2023/04/25 01:47:35;;;;;;;8.32;5.18;;;;;;;;;;7365771;19;20097;-68
2023/04/25 01:50:01;;;;;;;10.77;5.30;;;;;;;;;;7367720;19;20077;-69
2023/04/25 01:52:26;;;;;;;8.63;5.03;;;;;;;;;;7367040;19;20007;-69
2023/04/25 01:54:52;;;;;;;7.65;4.78;;;;;;;;;;7388176;19;20062;-69
2023/04/25 01:57:18;;;;;;;9.02;4.80;;;;;;;;;;7362940;19;20135;-69
2023/04/25 01:59:43;;;;;;;12.60;5.00;;;;;;;;;;7366385;19;20010;-68
2023/04/25 02:02:09;;;;;;;8.50;4.95;;;;;;;;;;7365785;19;20011;-69
2023/04/25 02:04:34;;;;;;;7.28;4.90;;;;;;;;;;7367859;19;20082;-70
2023/04/25 02:06:59;;;;;;;9.15;4.80;;;;;;;;;;7385671;19;20014;-69
2023/04/25 02:09:25;;;;;;;8.40;4.93;;;;;;;;;;7365543;19;20031;-69
2023/04/25 02:11:50;;;;;;;9.52;5.45;;;;;;;;;;7365820;19;20023;-69
2023/04/25 02:14:15;;;;;;;7.65;5.07;;;;;;;;;;7365769;19;20094;-69
2023/04/25 02:16:43;;;;;;;8.68;5.28;;;;;;;;;;7368574;19;20014;-69
2023/04/25 02:19:09;;;;;;;10.10;5.82;;;;;;;;;;7391322;19;20003;-69
2023/04/25 02:21:35;;;;;;;8.50;5.15;;;;;;;;;;7365342;19;20007;-69
2023/04/25 02:24:00;;;;;;;8.15;4.70;;;;;;;;;;7368498;19;20050;-69
2023/04/25 02:26:26;;;;;;;10.45;5.47;;;;;;;;;;7372404;19;20464;-69
2023/04/25 02:28:51;;;;;;;10.23;5.40;;;;;;;;;;7366476;19;20014;-70
2023/04/25 02:31:17;;;;;;;8.43;5.10;;;;;;;;;;7389277;19;20449;-69
2023/04/25 02:33:43;;;;;;;8.50;5.72;;;;;;;;;;7368658;19;20054;-69
2023/04/25 02:36:08;;;;;;;9.35;5.78;;;;;;;;;;7368658;19;20020;-69
2023/04/25 02:38:33;;;;;;;12.02;6.07;;;;;;;;;;7365614;19;20007;-69
2023/04/25 02:40:59;;;;;;;9.38;5.50;;;;;;;;;;7365681;19;20007;-70
2023/04/25 02:43:24;;;;;;;11.38;5.35;;;;;;;;;;7372472;19;20003;-69
2023/04/25 02:45:50;;;;;;;8.77;5.13;;;;;;;;;;7400582;19;20002;-68
2023/04/25 02:48:15;;;;;;;9.95;5.50;;;;;;;;;;7378901;19;20013;-68
2023/04/25 02:50:41;;;;;;;9.40;5.53;;;;;;;;;;7374915;19;20388;-69
2023/04/25 02:53:06;;;;;;;11.82;5.53;;;;;;;;;;7371870;19;20010;-69
2023/04/25 02:55:31;;;;;;;9.32;5.60;;;;;;;;;;7372761;19;20006;-69
2023/04/25 02:57:57;;;;;;;8.65;5.40;;;;;;;;;;7394769;19;20070;-69
2023/04/25 03:00:22;;;;;;;12.38;5.28;;;;;;;;;;7371927;19;20018;-69
2023/04/25 03:02:48;;;;;;;8.57;5.72;;;;;;;;;;7372642;19;20022;-69
2023/04/25 03:05:13;;;;;;;12.80;5.63;;;;;;;;;;7374154;19;20002;-69
2023/04/25 03:07:39;;;;;;;10.23;5.85;;;;;;;;;;7371791;19;20016;-69
2023/04/25 03:10:06;;;;;;;11.27;6.10;;;;;;;;;;7407997;19;20028;-69
2023/04/25 03:12:31;;;;;;;11.55;5.93;;;;;;;;;;7401665;19;20006;-69
2023/04/25 03:14:57;;;;;;;10.52;6.18;;;;;;;;;;7401111;19;20047;-69
2023/04/25 03:17:22;;;;;;;12.05;6.35;;;;;;;;;;7378055;19;20007;-69
2023/04/25 03:19:47;;;;;;;9.45;6.32;;;;;;;;;;7374540;19;20540;-68
2023/04/25 03:22:13;;;;;;;11.40;6.70;;;;;;;;;;7397151;19;20071;-68
2023/04/25 03:24:38;;;;;;;11.00;5.95;;;;;;;;;;7373198;19;20089;-68
2023/04/25 03:27:04;;;;;;;11.38;6.53;;;;;;;;;;7369997;19;20014;-69
2023/04/25 03:29:29;;;;;;;9.35;6.13;;;;;;;;;;7373109;19;20040;-69
2023/04/25 03:31:54;;;;;;;10.73;6.10;;;;;;;;;;7373840;19;20010;-69
2023/04/25 03:34:21;;;;;;;11.52;5.90;;;;;;;;;;7384718;19;20003;-69
2023/04/25 03:36:46;;;;;;;11.50;5.82;;;;;;;;;;7391338;19;20454;-69
2023/04/25 03:39:12;;;;;;;10.52;5.57;;;;;;;;;;7370736;19;20015;-68
2023/04/25 03:41:37;;;;;;;9.50;5.93;;;;;;;;;;7372041;19;20043;-69
2023/04/25 03:44:02;;;;;;;9.85;6.55;;;;;;;;;;7377037;19;20015;-69
2023/04/25 03:46:28;;;;;;;13.38;6.88;;;;;;;;;;7372956;19;20010;-69
2023/04/25 03:48:53;;;;;;;12.80;6.47;;;;;;;;;;7391939;19;19994;-69
2023/04/25 03:51:18;;;;;;;14.43;6.80;;;;;;;;;;7370421;19;20010;-69
2023/04/25 03:53:44;;;;;;;12.00;7.07;;;;;;;;;;7367967;19;20501;-69
2023/04/25 03:56:09;;;;;;;12.07;6.90;;;;;;;;;;7369526;19;20414;-69
2023/04/25 03:58:34;;;;;;;12.40;7.05;;;;;;;;;;7370160;19;19995;-69
2023/04/25 04:01:02;;;;;;;20.42;8.50;;;;;;;;;;7391257;19;20330;-69
2023/04/25 04:03:27;;;;;;;11.98;7.30;;;;;;;;;;7369568;19;20003;-69
2023/04/25 04:05:53;;;;;;;15.45;8.82;;;;;;;;;;7369829;19;20006;-69
2023/04/25 04:08:18;;;;;;;12.98;6.45;;;;;;;;;;7369507;19;20006;-68
2023/04/25 04:10:43;;;;;;;12.63;6.93;;;;;;;;;;7376080;19;20104;-68
2023/04/25 04:13:09;;;;;;;14.25;8.18;;;;;;;;;;7392841;19;20024;-68
2023/04/25 04:15:34;;;;;;;17.35;8.25;;;;;;;;;;7369978;19;20017;-68
2023/04/25 04:18:02;;;;;;;16.25;9.05;;;;;;;;;;7370165;19;20010;-68
2023/04/25 04:20:29;;;;;;;19.15;8.68;;;;;;;;;;7371704;19;20014;-68
2023/04/25 04:22:54;;;;;;;21.00;8.88;;;;;;;;;;7370517;19;20567;-69
2023/04/25 04:25:19;;;;;;;15.15;8.18;;;;;;;;;;7384810;19;20115;-70
2023/04/25 04:27:45;;;;;;;14.68;7.55;;;;;;;;;;7382335;19;20070;-69
2023/04/25 04:30:12;;;;;;;18.80;8.02;;;;;;;;;;7367891;19;20015;-69
2023/04/25 04:32:38;;;;;;;18.95;8.05;;;;;;;;;;7372103;19;20214;-68
2023/04/25 04:35:04;;;;;;;15.35;7.50;;;;;;;;;;7371210;19;20002;-69
2023/04/25 04:37:29;;;;;;;17.48;6.95;;;;;;;;;;7369743;19;20003;-69
2023/04/25 04:39:55;;;;;;;14.75;6.70;;;;;;;;;;7393311;19;20046;-69
2023/04/25 04:42:21;;;;;;;18.45;7.07;;;;;;;;;;7381420;19;20074;-69
2023/04/25 04:44:46;;;;;;;13.80;5.57;;;;;;;;;;7377756;19;20495;-68
2023/04/25 04:47:12;;;;;;;15.95;5.00;;;;;;;;;;7374770;19;20007;-68
2023/04/25 04:49:37;;;;;;;13.77;5.63;;;;;;;;;;7371062;19;19998;-70
2023/04/25 04:52:03;;;;;;;12.70;4.90;;;;;;;;;;7394553;19;20039;-69
2023/04/25 04:54:28;;;;;;;15.38;5.60;;;;;;;;;;7371191;19;20070;-68
2023/04/25 04:56:54;;;;;;;10.90;4.70;;;;;;;;;;7374839;19;20070;-69
2023/04/25 04:59:19;;;;;;;11.80;5.10;;;;;;;;;;7372181;19;20017;-67
2023/04/25 05:01:45;;;;;;;14.10;4.80;;;;;;;;;;7378020;19;20010;-68
2023/04/25 05:04:11;;;;;;;13.77;5.70;;;;;;;;;;7397570;19;20469;-68
2023/04/25 05:06:36;;;;;;;16.25;5.60;;;;;;;;;;7376343;19;20002;-69
2023/04/25 05:09:01;;;;;;;12.27;5.28;;;;;;;;;;7372183;19;20023;-69
2023/04/25 05:11:27;;;;;;;16.17;6.35;;;;;;;;;;7370571;19;20097;-69
2023/04/25 05:13:52;;;;;;;20.10;6.50;;;;;;;;;;7376129;19;20010;-68
2023/04/25 05:16:18;;;;;;;15.90;6.63;;;;;;;;;;7393402;19;20367;-72
2023/04/25 05:18:43;;;;;;;14.25;6.57;;;;;;;;;;7371444;19;19998;-72
2023/04/25 05:21:09;;;;;;;14.70;6.28;;;;;;;;;;7370130;19;20003;-72
2023/04/25 05:23:34;;;;;;;12.57;5.97;;;;;;;;;;7370575;19;20583;-70
2023/04/25 05:26:00;;;;;;;14.77;6.50;;;;;;;;;;7371374;19;20510;-71
2023/04/25 05:28:25;;;;;;;16.40;6.30;;;;;;;;;;7367365;19;20070;-70
2023/04/25 05:30:51;;;;;;;14.40;5.68;;;;;;;;;;7392929;19;20392;-71
2023/04/25 05:33:16;;;;;;;16.95;6.10;;;;;;;;;;7369715;19;20036;-69
2023/04/25 05:35:45;;;;;;;19.05;5.55;;;;;;;;;;7370683;19;19998;-69
2023/04/25 05:38:11;;;;;;;14.35;5.68;;;;;;;;;;7366357;19;20478;-69
2023/04/25 05:40:36;;;;;;;13.80;5.55;;;;;;;;;;7372868;19;20086;-69
2023/04/25 05:43:02;;;;;;;13.10;5.50;;;;;;;;;;7407843;19;19995;-68
2023/04/25 05:45:27;;;;;;;12.55;5.32;;;;;;;;;;7377057;19;19994;-69
2023/04/25 05:47:53;;;;;;;11.20;4.78;;;;;;;;;;7373990;19;20014;-69
2023/04/25 05:50:18;;;;;;;17.00;5.10;;;;;;;;;;7372065;19;20044;-68
2023/04/25 05:52:43;;;;;;;8.57;4.22;;;;;;;;;;7375487;19;20411;-70
2023/04/25 05:55:09;;;;;;;12.60;4.57;;;;;;;;;;7399713;19;20027;-69
2023/04/25 05:57:34;;;;;;;21.38;5.60;;;;;;;;;;7372543;19;19999;-69
2023/04/25 06:00:00;;;;;;;11.35;4.60;;;;;;;;;;7373301;19;20002;-69
2023/04/25 06:02:26;;;;;;;12.60;4.97;;;;;;;;;;7375911;19;20002;-70
2023/04/25 06:04:51;;;;;;;13.73;4.72;;;;;;;;;;7374030;19;20550;-70
2023/04/25 06:07:17;;;;;;;14.90;4.50;;;;;;;;;;7397714;19;20098;-70
2023/04/25 06:09:43;;;;;;;13.52;5.90;;;;;;;;;;7377663;19;20002;-75
2023/04/25 06:12:09;;;;;;;9.18;3.63;;;;;;;;;;7373964;19;20424;-74
2023/04/25 06:14:34;;;;;;;12.68;4.10;;;;;;;;;;7374617;19;20006;-75
2023/04/25 06:17:06;;;;;;;11.10;4.88;;;;;;;;;;7374516;19;20014;-75
2023/04/25 06:19:31;;;;;;;11.68;4.75;;;;;;;;;;7377072;19;19998;-75
2023/04/25 06:21:57;;;;;;;10.75;4.65;;;;;;;;;;7401644;19;20058;-74
2023/04/25 06:24:22;;;;;;;8.63;4.43;;;;;;;;;;7386639;19;20019;-75
2023/04/25 06:26:47;;;;;;;11.45;4.35;;;;;;;;;;7378416;19;20035;-75
2023/04/25 06:29:13;;;;;;;11.77;4.55;;;;;;;;;;7376204;19;20461;-74
2023/04/25 06:31:38;;;;;;;13.23;4.95;;;;;;;;;;7378405;19;20546;-75
2023/04/25 06:34:03;;;;;;;13.45;5.03;;;;;;;;;;7397717;19;19990;-74
2023/04/25 06:36:30;;;;;;;9.75;4.75;;;;;;;;;;7374471;19;19991;-73
2023/04/25 06:38:55;;;;;;;19.65;4.70;;;;;;;;;;7376075;19;20074;-71
2023/04/25 06:41:20;;;;;;;12.00;5.25;;;;;;;;;;7374913;19;20011;-67
2023/04/25 06:43:46;;;;;;;12.20;4.82;;;;;;;;;;7376717;19;20444;-67
2023/04/25 06:46:12;;;;;;;10.35;4.28;;;;;;;;;;7394833;19;19999;-68
2023/04/25 06:48:37;;;;;;;11.20;4.88;;;;;;;;;;7376486;19;20074;-68
2023/04/25 06:51:03;;;;;;;14.02;5.57;;;;;;;;;;7375339;19;20031;-73
2023/04/25 06:53:28;;;;;;;10.25;4.05;;;;;;;;;;7375776;19;20002;-72
2023/04/25 06:55:53;;;;;;;10.65;4.25;;;;;;;;;;7374106;19;20013;-69
2023/04/25 06:58:19;;;;;;;9.55;4.20;;;;;;;;;;7397530;19;20011;-73
2023/04/25 07:00:44;;;;;;;7.88;3.90;;;;;;;;;;7378847;19;20020;-73
2023/04/25 07:03:09;;;;;;;9.07;3.55;;;;;;;;;;7375682;19;20019;-73
2023/04/25 07:05:35;;;;;;;10.00;3.65;;;;;;;;;;7378093;19;20015;-72
2023/04/25 07:08:00;;;;;;;9.48;3.80;;;;;;;;;;7392929;19;20006;-73
2023/04/25 07:10:26;;;;;;;6.40;3.42;;;;;;;;;;7394311;19;20012;-73
2023/04/25 07:12:51;;;;;;;7.05;3.30;;;;;;;;;;7406138;19;19987;-72
2023/04/25 07:15:17;;;;;;;9.70;3.10;;;;;;;;;;7374908;19;19998;-69
2023/04/25 07:17:42;;;;;;;10.88;4.05;;;;;;;;;;7372664;19;19998;-70
2023/04/25 07:20:09;;;;;;;8.15;3.83;;;;;;;;;;7374176;19;20027;-70
2023/04/25 07:22:34;;;;;;;8.20;3.50;;;;;;;;;;7375242;19;20030;-68
2023/04/25 07:25:00;;;;;;;10.55;3.65;;;;;;;;;;7395522;19;20006;-68
2023/04/25 07:27:25;;;;;;;8.57;3.60;;;;;;;;;;7368581;19;20086;-69
2023/04/25 07:29:50;;;;;;;10.73;3.67;;;;;;;;;;7371972;19;20445;-70
2023/04/25 07:32:16;;;;;;;8.60;3.63;;;;;;;;;;7375551;19;20002;-70
2023/04/25 07:34:41;;;;;;;11.40;3.83;;;;;;;;;;7375729;19;20002;-69
2023/04/25 07:37:06;;;;;;;8.75;3.45;;;;;;;;;;7393840;19;20488;-68
2023/04/25 07:39:32;;;;;;;6.57;3.25;;;;;;;;;;7373638;19;20051;-68
2023/04/25 07:42:01;;;;;;;10.73;3.60;;;;;;;;;;7373144;19;20006;-68
2023/04/25 07:44:27;;;;;;;9.75;3.60;;;;;;;;;;7370952;19;20458;-69
2023/04/25 07:46:52;;;;;;;9.30;3.63;;;;;;;;;;7370940;19;20080;-69
2023/04/25 07:49:17;;;;;;;8.80;3.47;;;;;;;;;;7395734;19;20002;-67
2023/04/25 07:51:45;;;;;;;11.60;3.53;;;;;;;;;;7371342;19;20464;-69
2023/04/25 07:54:15;;;;;;;8.32;3.30;;;;;;;;;;7371779;19;20002;-68
2023/04/25 07:56:40;;;;;;;9.07;2.70;;;;;;;;;;7368629;19;20037;-68
2023/04/25 07:59:06;;;;;;;9.38;2.67;;;;;;;;;;7371864;19;20007;-67
2023/04/25 08:01:31;;;;;;;7.13;2.90;;;;;;;;;;7374178;19;20504;-70
2023/04/25 08:03:56;;;;;;;3.90;2.30;;;;;;;;;;7394566;19;20022;-68
2023/04/25 08:06:21;;;;;;;5.32;2.30;;;;;;;;;;7370429;19;20539;-67
2023/04/25 08:08:47;;;;;;;5.90;2.40;;;;;;;;;;7370260;19;20014;-67
2023/04/25 08:11:12;;;;;;;6.50;2.42;;;;;;;;;;7370991;19;20084;-68
2023/04/25 08:13:37;;;;;;;7.55;2.35;;;;;;;;;;7370508;19;20021;-69
2023/04/25 08:16:03;;;;;;;5.82;2.13;;;;;;;;;;7393685;19;19994;-67
2023/04/25 08:18:28;;;;;;;5.38;2.40;;;;;;;;;;7372421;19;20001;-68
2023/04/25 08:20:53;;;;;;;3.92;1.90;;;;;;;;;;7370018;19;20023;-73
2023/04/25 08:23:19;;;;;;;4.90;2.38;;;;;;;;;;7372056;19;19998;-68
2023/04/25 08:25:44;;;;;;;5.20;2.15;;;;;;;;;;7369580;19;20002;-71
2023/04/25 08:28:09;;;;;;;4.30;2.10;;;;;;;;;;7392851;19;20036;-70
2023/04/25 08:30:36;;;;;;;5.05;2.00;;;;;;;;;;7371783;19;20017;-69
2023/04/25 08:33:02;;;;;;;6.65;2.38;;;;;;;;;;7370300;19;20007;-69
2023/04/25 08:35:27;;;;;;;6.57;2.58;;;;;;;;;;7369899;19;20890;-69
2023/04/25 08:37:53;;;;;;;7.55;3.10;;;;;;;;;;7367724;19;20027;-69
2023/04/25 08:40:19;;;;;;;4.85;1.92;;;;;;;;;;7391601;19;20371;-68
2023/04/25 08:42:46;;;;;;;5.15;1.98;;;;;;;;;;7373110;19;20002;-69
2023/04/25 08:45:12;;;;;;;8.90;2.13;;;;;;;;;;7368282;19;20023;-69
2023/04/25 08:47:39;;;;;;;5.65;1.80;;;;;;;;;;7369845;19;19995;-69
2023/04/25 08:50:06;;;;;;;5.22;1.70;;;;;;;;;;7372475;19;20013;-69
2023/04/25 08:52:36;;;;;;;4.72;2.20;;;;;;;;;;7375184;19;20002;-69
2023/04/25 08:55:02;;;;;;;4.03;2.03;;;;;;;;;;7398293;19;20074;-69
2023/04/25 08:57:29;;;;;;;6.00;2.30;;;;;;;;;;7371166;19;20002;-69
2023/04/25 08:59:55;;;;;;;4.90;2.00;;;;;;;;;;7372292;19;19998;-70
2023/04/25 09:02:21;;;;;;;10.68;2.90;;;;;;;;;;7368760;19;19998;-69
2023/04/25 09:04:48;;;;;;;3.97;1.92;;;;;;;;;;7371072;19;20006;-69
2023/04/25 09:07:18;;;;;;;7.03;2.40;;;;;;;;;;7392326;19;20001;-69
2023/04/25 09:09:43;;;;;;;6.10;2.37;;;;;;;;;;7369102;19;20003;-69
2023/04/25 09:12:09;;;;;;;5.78;2.35;;;;;;;;;;7371096;19;20235;-69
2023/04/25 09:14:34;;;;;;;11.43;2.50;;;;;;;;;;7368326;19;20360;-69
2023/04/25 09:17:02;;;;;;;6.18;2.58;;;;;;;;;;7368803;19;20002;-69
2023/04/25 09:19:35;;;;;;;6.95;2.63;;;;;;;;;;7370061;19;20039;-69
2023/04/25 09:22:03;;;;;;;4.32;2.65;;;;;;;;;;7393053;19;20357;-69
2023/04/25 09:24:36;;;;;;;5.82;2.42;;;;;;;;;;7367792;19;20005;-69
2023/04/25 09:27:17;;;;;;;8.00;2.38;;;;;;;;;;7362541;19;20007;-69
2023/04/25 09:29:43;;;;;;;;;;;;;;;;;;7368596;19;20002;-69
2023/04/25 09:32:24;;;;;;;8.18;2.60;;;;;;;;;;7368378;19;19940;-69
2023/04/25 09:34:50;;;;;;;4.25;2.53;;;;;;;;;;7371127;19;20007;-69
2023/04/25 09:37:23;;;;;;;3.85;2.03;;;;;;;;;;7395301;19;20007;-68
2023/04/25 09:39:58;;;;;;;7.93;2.60;;;;;;;;;;7375067;19;20415;-68
2023/04/25 09:42:25;;;;;;;5.25;2.65;;;;;;;;;;7368685;19;20479;-69
2023/04/25 09:44:54;;;;;;;7.82;3.08;;;;;;;;;;7366568;19;20079;-69
2023/04/25 09:47:22;;;;;;;7.65;3.17;;;;;;;;;;7375329;19;20010;-69
2023/04/25 09:49:48;;;;;;;6.28;2.70;;;;;;;;;;7376613;19;20425;-68
2023/04/25 09:52:21;;;;;;;8.70;3.47;;;;;;;;;;7393396;19;19995;-68
2023/04/25 09:54:48;;;;;;;5.25;2.63;;;;;;;;;;7373974;19;20013;-68
2023/04/25 09:57:16;;;;;;;6.32;2.92;;;;;;;;;;7366248;19;20006;-68
2023/04/25 09:59:46;;;;;;;8.02;3.50;;;;;;;;;;7372562;19;19998;-68
2023/04/25 10:02:13;;;;;;;8.57;4.10;;;;;;;;;;7368814;19;20021;-69
2023/04/25 10:04:39;;;;;;;8.55;3.50;;;;;;;;;;7369793;19;20282;-68
2023/04/25 10:07:08;;;;;;;10.10;3.40;;;;;;;;;;7396621;19;19998;-68
2023/04/25 10:09:37;;;;;;;8.13;3.60;;;;;;;;;;7370037;19;20505;-68
2023/04/25 10:12:03;;;;;;;8.88;3.40;;;;;;;;;;7368412;19;20058;-68
2023/04/25 10:14:30;;;;;;;6.95;3.70;;;;;;;;;;7366391;19;20062;-68
2023/04/25 10:16:56;;;;;;;10.95;4.13;;;;;;;;;;7368440;19;20001;-68
2023/04/25 10:19:23;;;;;;;10.10;3.80;;;;;;;;;;7369841;19;19994;-69
2023/04/25 10:22:06;;;;;;;11.15;4.00;;;;;;;;;;7389457;19;20030;-68
2023/04/25 10:24:32;;;;;;;6.75;3.53;;;;;;;;;;7368112;19;20091;-69
2023/04/25 10:26:58;;;;;;;9.30;3.88;;;;;;;;;;7365570;19;20483;-69
2023/04/25 10:29:25;;;;;;;10.02;4.10;;;;;;;;;;7366872;19;20476;-69
2023/04/25 10:31:51;;;;;;;9.80;3.65;;;;;;;;;;7366790;19;20353;-69
2023/04/25 10:34:17;;;;;;;8.63;3.75;;;;;;;;;;7389180;19;20009;-69
2023/04/25 10:36:42;;;;;;;6.28;2.70;;;;;;;;;;7364389;19;20028;-69
2023/04/25 10:39:09;;;;;;;6.53;3.63;;;;;;;;;;7366254;19;20384;-68
2023/04/25 10:41:48;;;;;;;10.90;4.00;;;;;;;;;;7365890;19;20027;-68
2023/04/25 10:44:13;;;;;;;8.80;3.95;;;;;;;;;;7367086;19;20554;-72
2023/04/25 10:46:39;;;;;;;7.90;4.35;;;;;;;;;;7367253;19;20003;-73
2023/04/25 10:49:04;;;;;;;9.55;3.80;;;;;;;;;;7389041;19;20010;-70
2023/04/25 10:51:32;;;;;;;6.63;3.65;;;;;;;;;;7367725;19;20013;-70
2023/04/25 10:54:05;;;;;;;11.52;4.13;;;;;;;;;;7363871;19;20091;-67
2023/04/25 10:56:39;;;;;;;16.67;4.53;;;;;;;;;;7365134;19;20045;-69
2023/04/25 10:59:09;;;;;;;9.27;4.13;;;;;;;;;;7375796;19;20003;-67
2023/04/25 11:01:37;;;;;;;8.95;3.63;;;;;;;;;;7381350;19;20002;-67
2023/04/25 11:04:03;;;;;;;10.18;4.53;;;;;;;;;;7406863;19;20026;-67
2023/04/25 11:06:45;;;;;;;8.48;3.40;;;;;;;;;;7394725;19;20007;-69
2023/04/25 11:09:15;;;;;;;7.90;3.85;;;;;;;;;;7387016;19;20002;-67
2023/04/25 11:11:40;;;;;;;9.85;4.10;;;;;;;;;;7375509;19;20010;-69
2023/04/25 11:14:06;;;;;;;9.15;4.18;;;;;;;;;;7372458;19;20010;-70
2023/04/25 11:16:32;;;;;;;7.28;3.13;;;;;;;;;;7371587;19;19995;-69
2023/04/25 11:18:58;;;;;;;8.57;3.50;;;;;;;;;;7395339;19;20019;-68
2023/04/25 11:21:25;;;;;;;9.95;3.60;;;;;;;;;;7375002;19;19999;-70
2023/04/25 11:23:51;;;;;;;9.52;3.40;;;;;;;;;;7373555;19;20014;-68
2023/04/25 11:26:18;;;;;;;8.43;3.40;;;;;;;;;;7370128;19;20028;-68
2023/04/25 11:28:45;;;;;;;7.53;3.10;;;;;;;;;;7373884;19;20010;-67
2023/04/25 11:31:10;;;;;;;10.43;3.60;;;;;;;;;;7395013;19;20544;-67
2023/04/25 11:33:36;;;;;;;11.10;3.60;;;;;;;;;;7373928;19;20006;-66
2023/04/25 11:36:01;;;;;;;9.32;3.60;;;;;;;;;;7376854;19;20010;-67
2023/04/25 11:38:27;;;;;;;13.43;3.75;;;;;;;;;;7372440;19;20006;-66
2023/04/25 11:40:52;;;;;;;10.10;3.10;;;;;;;;;;7375998;19;19995;-66
2023/04/25 11:43:21;;;;;;;9.63;3.33;;;;;;;;;;7393776;19;19994;-66
2023/04/25 11:45:50;;;;;;;5.85;2.67;;;;;;;;;;7373078;19;20002;-66
2023/04/25 11:48:16;;;;;;;9.02;3.72;;;;;;;;;;7371140;19;20006;-69
2023/04/25 11:50:42;;;;;;;9.90;3.28;;;;;;;;;;7371358;19;20576;-70
2023/04/25 11:53:08;;;;;;;7.32;3.15;;;;;;;;;;7372470;19;20277;-66
2023/04/25 11:55:33;;;;;;;13.90;3.40;;;;;;;;;;7370692;19;20088;-67
2023/04/25 11:58:00;;;;;;;11.95;3.22;;;;;;;;;;7389406;19;20006;-68
2023/04/25 12:00:26;;;;;;;8.35;3.10;;;;;;;;;;7373299;19;20003;-69
2023/04/25 12:02:53;;;;;;;7.85;3.10;;;;;;;;;;7373276;19;20406;-69
2023/04/25 12:05:20;;;;;;;7.50;2.92;;;;;;;;;;7371251;19;20013;-70
2023/04/25 12:07:46;;;;;;;7.50;3.75;;;;;;;;;;7370220;19;20010;-70
2023/04/25 12:10:13;;;;;;;9.30;2.95;;;;;;;;;;7394882;19;19998;-69
2023/04/25 12:12:42;;;;;;;8.80;2.70;;;;;;;;;;7373226;19;19999;-67
2023/04/25 12:15:22;;;;;;;9.98;2.90;;;;;;;;;;7368975;19;20002;-68
2023/04/25 12:17:49;;;;;;;9.35;3.17;;;;;;;;;;7371678;19;20032;-67
2023/04/25 12:20:17;;;;;;;13.65;2.88;;;;;;;;;;7365519;19;20070;-66
2023/04/25 12:22:45;;;;;;;14.63;3.40;;;;;;;;;;7372108;19;20684;-65
2023/04/25 12:25:34;;;;;;;11.40;2.80;;;;;;;;;;7394778;19;20006;-66
2023/04/25 12:28:31;;;;;;;9.30;3.20;;;;;;;;;;7366114;19;20367;-65
2023/04/25 12:31:03;;;;;;;8.30;3.33;;;;;;;;;;7370590;19;19999;-66
2023/04/25 12:33:39;;;;;;;4.90;2.45;;;;;;;;;;7369795;19;20069;-65
2023/04/25 12:36:08;;;;;;;7.47;2.85;;;;;;;;;;7375914;19;20465;-66
2023/04/25 12:38:38;;;;;;;12.55;3.03;;;;;;;;;;7372546;19;20015;-68
2023/04/25 12:41:04;;;;;;;5.88;2.55;;;;;;;;;;7370091;19;20048;-68
2023/04/25 12:43:30;;;;;;;12.80;3.17;;;;;;;;;;7372407;19;19999;-69
2023/04/25 12:45:56;;;;;;;6.90;2.70;;;;;;;;;;7389916;19;19994;-69
2023/04/25 12:48:21;;;;;;;9.85;2.70;;;;;;;;;;7369678;19;20409;-70
2023/04/25 12:50:48;;;;;;;8.30;2.65;;;;;;;;;;7371895;19;20013;-70
2023/04/25 12:53:18;;;;;;;7.45;2.80;;;;;;;;;;7371939;19;20092;-68
2023/04/25 12:55:46;;;;;;;10.13;3.17;;;;;;;;;;7370421;19;20014;-66
2023/04/25 12:58:12;;;;;;;9.73;2.88;;;;;;;;;;7386981;19;20069;-66
2023/04/25 13:00:38;;;;;;;6.93;2.58;;;;;;;;;;7369471;19;20508;-67
2023/04/25 13:03:04;;;;;;;5.82;2.55;;;;;;;;;;7371350;19;20013;-67
2023/04/25 13:05:30;;;;;;;7.75;3.05;;;;;;;;;;7376774;19;20002;-69
2023/04/25 13:07:55;;;;;;;10.15;3.15;;;;;;;;;;7369891;19;20006;-67
2023/04/25 13:10:21;;;;;;;9.77;3.00;;;;;;;;;;7374806;19;20564;-67
2023/04/25 13:12:46;;;;;;;9.52;3.08;;;;;;;;;;7392051;19;20010;-68
2023/04/25 13:15:12;;;;;;;10.88;2.67;;;;;;;;;;7366856;19;20013;-66
2023/04/25 13:17:38;;;;;;;7.25;2.80;;;;;;;;;;7366450;19;20006;-67
2023/04/25 13:20:09;;;;;;;7.18;2.65;;;;;;;;;;7370384;19;20022;-68
2023/04/25 13:22:36;;;;;;;9.52;2.70;;;;;;;;;;7370149;19;20461;-68
2023/04/25 13:25:02;;;;;;;8.43;2.40;;;;;;;;;;7390467;19;20051;-68
2023/04/25 13:27:28;;;;;;;5.15;2.45;;;;;;;;;;7368234;19;20036;-68
2023/04/25 13:29:53;;;;;;;8.10;2.33;;;;;;;;;;7368333;19;20006;-68
2023/04/25 13:32:18;;;;;;;9.05;2.58;;;;;;;;;;7369628;19;20018;-68
2023/04/25 13:34:43;;;;;;;6.10;2.20;;;;;;;;;;7368183;19;20706;-68
2023/04/25 13:37:09;;;;;;;6.38;2.28;;;;;;;;;;7389104;19;20011;-67
2023/04/25 13:39:34;;;;;;;6.38;2.42;;;;;;;;;;7367359;19;20045;-68
2023/04/25 13:42:00;;;;;;;6.43;2.45;;;;;;;;;;7369602;19;20007;-68
2023/04/25 13:44:25;;;;;;;5.97;1.83;;;;;;;;;;7370535;19;20066;-67
2023/04/25 13:46:50;;;;;;;7.05;2.40;;;;;;;;;;7369910;19;20045;-67
2023/04/25 13:49:16;;;;;;;5.43;2.50;;;;;;;;;;7392839;19;20002;-67
2023/04/25 13:51:42;;;;;;;4.60;2.15;;;;;;;;;;7366851;19;20002;-67
2023/04/25 13:54:07;;;;;;;9.93;2.58;;;;;;;;;;7366976;19;20003;-68
2023/04/25 13:56:33;;;;;;;9.38;2.67;;;;;;;;;;7367072;19;20007;-68
2023/04/25 13:58:58;;;;;;;6.63;1.75;;;;;;;;;;7369604;19;20007;-67
2023/04/25 14:01:23;;;;;;;7.18;2.15;;;;;;;;;;7369880;19;19999;-68
2023/04/25 14:03:49;;;;;;;7.18;2.30;;;;;;;;;;7390385;19;19999;-68
2023/04/25 14:06:21;;;;;;;4.97;2.17;;;;;;;;;;7368174;19;20006;-68
2023/04/25 14:08:46;;;;;;;6.63;1.70;;;;;;;;;;7368594;19;20556;-67
2023/04/25 14:11:12;;;;;;;7.13;2.22;;;;;;;;;;7369596;19;20010;-68
2023/04/25 14:13:37;;;;;;;5.82;2.22;;;;;;;;;;7365398;19;19995;-68
2023/04/25 14:16:02;;;;;;;3.60;1.88;;;;;;;;;;7387719;19;20054;-67
2023/04/25 14:18:28;;;;;;;6.80;2.08;;;;;;;;;;7367345;19;20514;-68
2023/04/25 14:20:53;;;;;;;5.95;2.08;;;;;;;;;;7365195;19;20009;-66
2023/04/25 14:23:18;;;;;;;7.97;2.30;;;;;;;;;;7367271;19;20047;-68
2023/04/25 14:25:44;;;;;;;8.27;2.38;;;;;;;;;;7368474;19;20059;-68
2023/04/25 14:28:10;;;;;;;5.97;2.20;;;;;;;;;;7382489;19;19995;-68
2023/04/25 14:30:35;;;;;;;5.05;2.30;;;;;;;;;;7367934;19;20014;-67
2023/04/25 14:33:00;;;;;;;7.05;2.75;;;;;;;;;;7364583;19;20617;-67